createdAt,value
2022-11-14T00:00:50.232Z,31.00
2022-11-14T00:03:36.083Z,29.75
2022-11-14T00:06:22.657Z,25.17
2022-11-14T00:09:09.012Z,24.40
2022-11-14T00:11:56.103Z,24.45
2022-11-14T00:14:43.854Z,23.80
2022-11-14T00:17:33.741Z,21.40
2022-11-14T00:20:21.415Z,20.77
2022-11-14T00:23:07.770Z,20.27
2022-11-14T00:25:53.401Z,24.00
2022-11-14T00:28:40.276Z,22.63
2022-11-14T00:31:26.095Z,21.20
2022-11-14T00:34:11.741Z,21.30
2022-11-14T00:36:57.852Z,21.55
2022-11-14T00:39:45.142Z,20.73
2022-11-14T00:42:30.605Z,20.15
2022-11-14T00:45:15.853Z,20.40
2022-11-14T00:48:02.349Z,20.92
2022-11-14T00:50:48.630Z,21.80
2022-11-14T00:53:36.130Z,20.92
2022-11-14T00:56:23.950Z,26.90
2022-11-14T00:59:17.428Z,28.45
2022-11-14T01:02:04.576Z,35.15
2022-11-14T01:04:50.312Z,29.00
2022-11-14T01:07:35.945Z,31.38
2022-11-14T01:10:23.646Z,58.22
2022-11-14T01:13:13.079Z,42.25
2022-11-14T01:16:02.292Z,53.72
2022-11-14T01:18:49.087Z,63.15
2022-11-14T01:21:35.338Z,67.90
2022-11-14T01:24:22.614Z,66.13
2022-11-14T01:27:08.468Z,59.85
2022-11-14T01:29:54.558Z,60.80
2022-11-14T01:32:43.855Z,59.90
2022-11-14T01:35:33.027Z,59.65
2022-11-14T01:38:19.275Z,55.97
2022-11-14T01:41:06.108Z,50.47
2022-11-14T01:43:51.608Z,52.03
2022-11-14T01:46:40.582Z,51.63
2022-11-14T01:49:34.840Z,59.55
2022-11-14T01:52:41.126Z,58.78
2022-11-14T01:55:27.871Z,35.22
2022-11-14T01:58:14.965Z,24.80
2022-11-14T02:01:01.082Z,18.35
2022-11-14T02:03:50.283Z,19.20
2022-11-14T02:06:36.658Z,18.73
2022-11-14T02:09:23.216Z,19.17
2022-11-14T02:12:12.191Z,21.17
2022-11-14T02:15:00.072Z,18.80
2022-11-14T02:17:47.512Z,20.90
2022-11-14T02:20:43.093Z,18.52
2022-11-14T02:23:32.989Z,19.63
2022-11-14T02:26:24.696Z,19.88
2022-11-14T02:29:12.370Z,18.73
2022-11-14T02:31:59.024Z,16.85
2022-11-14T02:34:47.798Z,17.70
2022-11-14T02:37:33.395Z,16.77
2022-11-14T02:40:20.220Z,16.75
2022-11-14T02:43:06.146Z,17.58
2022-11-14T02:45:51.814Z,17.27
2022-11-14T02:48:38.664Z,17.83
2022-11-14T02:51:25.454Z,16.95
2022-11-14T02:54:12.166Z,19.58
2022-11-14T02:56:59.048Z,19.10
2022-11-14T02:59:45.028Z,19.38
2022-11-14T03:02:31.224Z,28.20
2022-11-14T03:05:18.762Z,33.65
2022-11-14T03:08:08.738Z,36.42
2022-11-14T03:10:55.151Z,28.60
2022-11-14T03:13:42.283Z,32.70
2022-11-14T03:16:30.870Z,28.85
2022-11-14T03:19:16.633Z,29.20
2022-11-14T03:22:02.887Z,26.55
2022-11-14T03:24:48.705Z,21.77
2022-11-14T03:27:36.132Z,20.58
2022-11-14T03:30:21.842Z,23.92
2022-11-14T03:33:07.249Z,22.95
2022-11-14T03:35:54.627Z,18.30
2022-11-14T03:38:40.803Z,20.13
2022-11-14T03:41:26.445Z,17.98
2022-11-14T03:44:11.970Z,18.67
2022-11-14T03:46:57.256Z,22.45
2022-11-14T03:49:45.161Z,18.92
2022-11-14T03:52:30.428Z,16.85
2022-11-14T03:55:16.566Z,16.58
2022-11-14T03:58:02.223Z,15.65
2022-11-14T04:00:47.686Z,15.68
2022-11-14T04:03:32.993Z,13.05
2022-11-14T04:06:18.314Z,12.23
2022-11-14T04:09:04.584Z,11.95
2022-11-14T04:11:50.563Z,12.90
2022-11-14T04:14:36.422Z,13.40
2022-11-14T04:17:22.558Z,16.35
2022-11-14T04:20:10.677Z,12.80
2022-11-14T04:22:57.344Z,11.90
2022-11-14T04:25:44.667Z,11.90
2022-11-14T04:28:30.509Z,11.02
2022-11-14T04:31:15.999Z,11.88
2022-11-14T04:34:01.744Z,12.13
2022-11-14T04:36:47.786Z,11.32
2022-11-14T04:39:33.520Z,13.98
2022-11-14T04:42:19.077Z,12.02
2022-11-14T04:45:05.847Z,12.48
2022-11-14T04:47:51.394Z,13.38
2022-11-14T04:50:36.949Z,14.13
2022-11-14T04:53:22.334Z,15.23
2022-11-14T04:56:07.785Z,15.98
2022-11-14T04:58:53.593Z,17.60
2022-11-14T05:01:39.450Z,16.52
2022-11-14T05:04:25.183Z,13.98
2022-11-14T05:07:11.938Z,13.57
2022-11-14T05:09:57.813Z,12.55
2022-11-14T05:12:44.289Z,13.23
2022-11-14T05:15:33.200Z,16.05
2022-11-14T05:18:19.671Z,12.35
2022-11-14T05:21:05.685Z,13.38
2022-11-14T05:23:51.375Z,12.77
2022-11-14T05:26:37.708Z,12.52
2022-11-14T05:29:23.554Z,12.68
2022-11-14T05:32:12.395Z,13.45
2022-11-14T05:35:01.787Z,13.00
2022-11-14T05:37:48.176Z,14.30
2022-11-14T05:40:34.855Z,19.90
2022-11-14T05:43:20.667Z,32.50
2022-11-14T05:46:12.631Z,32.45
2022-11-14T05:48:58.663Z,26.73
2022-11-14T05:51:44.857Z,23.05
2022-11-14T05:54:30.903Z,22.02
2022-11-14T05:57:17.111Z,24.77
2022-11-14T06:00:05.753Z,23.70
2022-11-14T06:02:55.455Z,23.10
2022-11-14T06:05:41.546Z,27.63
2022-11-14T06:08:29.938Z,25.13
2022-11-14T06:11:20.946Z,24.30
2022-11-14T06:14:11.399Z,26.55
2022-11-14T06:16:59.956Z,36.63
2022-11-14T06:19:46.096Z,37.00
2022-11-14T06:22:34.667Z,38.17
2022-11-14T06:25:20.617Z,40.30
2022-11-14T06:28:06.427Z,40.30
2022-11-14T06:30:52.617Z,46.05
2022-11-14T06:33:40.392Z,49.28
2022-11-14T06:36:26.563Z,53.30
2022-11-14T06:39:13.150Z,50.72
2022-11-14T06:42:00.070Z,56.35
2022-11-14T06:44:46.358Z,61.03
2022-11-14T06:47:32.404Z,65.45
2022-11-14T06:50:18.092Z,50.83
2022-11-14T06:53:06.093Z,46.03
2022-11-14T06:56:07.181Z,49.50
2022-11-14T06:58:53.108Z,51.25
2022-11-14T07:01:40.156Z,48.85
2022-11-14T07:04:26.622Z,51.28
2022-11-14T07:07:12.502Z,43.50
2022-11-14T07:09:58.908Z,45.63
2022-11-14T07:12:44.794Z,43.78
2022-11-14T07:15:30.590Z,41.97
2022-11-14T07:18:17.191Z,28.33
2022-11-14T07:21:06.167Z,28.42
2022-11-14T07:23:52.157Z,45.55
2022-11-14T07:26:37.770Z,25.15
2022-11-14T07:29:23.551Z,21.75
2022-11-14T07:33:00.829Z,21.17
2022-11-14T07:35:47.923Z,21.30
2022-11-14T07:38:36.000Z,21.90
2022-11-14T07:41:23.044Z,23.52
2022-11-14T07:44:09.755Z,24.92
2022-11-14T07:46:56.487Z,24.33
2022-11-14T07:49:42.668Z,23.70
2022-11-14T07:52:28.738Z,23.48
2022-11-14T07:55:40.131Z,26.80
2022-11-14T07:58:27.249Z,23.52
2022-11-14T08:01:14.835Z,22.50
2022-11-14T08:04:01.214Z,22.50
2022-11-14T08:06:47.527Z,21.33
2022-11-14T08:09:32.886Z,23.13
2022-11-14T08:12:18.825Z,18.23
2022-11-14T08:15:06.571Z,84.20
2022-11-14T08:17:51.993Z,21.55
2022-11-14T08:20:37.988Z,21.83
2022-11-14T08:23:24.325Z,24.05
2022-11-14T08:26:10.365Z,23.40
2022-11-14T08:28:56.511Z,41.60
2022-11-14T08:31:42.462Z,33.85
2022-11-14T08:34:29.731Z,22.38
2022-11-14T08:37:15.302Z,22.17
2022-11-14T08:40:03.673Z,21.50
2022-11-14T08:42:50.119Z,25.73
2022-11-14T08:45:35.830Z,22.60
2022-11-14T08:48:21.486Z,21.92
2022-11-14T08:51:07.658Z,22.83
2022-11-14T08:53:55.067Z,23.17
2022-11-14T08:56:41.934Z,25.42
2022-11-14T08:59:28.031Z,25.23
2022-11-14T09:02:15.055Z,22.65
2022-11-14T09:05:01.483Z,19.10
2022-11-14T09:07:47.567Z,14.90
2022-11-14T09:10:36.605Z,18.13
2022-11-14T09:13:23.012Z,14.45
2022-11-14T09:16:09.030Z,12.65
2022-11-14T09:18:55.203Z,11.70
2022-11-14T09:21:41.224Z,16.05
2022-11-14T09:24:29.638Z,12.93
2022-11-14T09:27:15.663Z,13.55
2022-11-14T09:30:01.834Z,14.05
2022-11-14T09:32:47.914Z,13.65
2022-11-14T09:35:43.558Z,12.85
2022-11-14T09:38:33.995Z,20.15
2022-11-14T09:41:27.400Z,12.70
2022-11-14T09:44:28.495Z,14.27
2022-11-14T09:47:23.268Z,13.47
2022-11-14T09:50:14.796Z,13.32
2022-11-14T09:53:22.300Z,12.50
2022-11-14T09:56:15.359Z,13.85
2022-11-14T09:59:01.302Z,14.13
2022-11-14T10:02:27.716Z,14.45
2022-11-14T10:05:16.193Z,15.65
2022-11-14T10:08:11.407Z,17.90
2022-11-14T10:11:10.910Z,15.20
2022-11-14T10:14:46.945Z,17.08
2022-11-14T10:17:35.058Z,15.60
2022-11-14T10:20:27.135Z,15.98
2022-11-14T10:23:45.638Z,15.05
2022-11-14T10:26:36.603Z,16.40
2022-11-14T10:29:25.542Z,16.63
2022-11-14T10:32:35.191Z,17.38
2022-11-14T10:35:25.234Z,14.93
2022-11-14T10:38:26.189Z,18.25
2022-11-14T10:41:28.505Z,18.88
2022-11-14T10:44:23.308Z,17.55
2022-11-14T10:47:15.354Z,16.80
2022-11-14T10:50:15.500Z,17.88
2022-11-14T10:53:05.228Z,14.43
2022-11-14T10:56:08.712Z,15.20
2022-11-14T10:58:54.157Z,14.43
2022-11-14T11:01:43.551Z,16.10
2022-11-14T11:04:35.323Z,22.38
2022-11-14T11:07:42.518Z,16.52
2022-11-14T11:10:47.796Z,15.57
2022-11-14T11:13:41.579Z,16.75
2022-11-14T11:16:32.829Z,33.85
2022-11-14T11:19:27.179Z,18.77
2022-11-14T11:22:25.422Z,17.67
2022-11-14T11:25:27.680Z,18.33
2022-11-14T11:28:22.571Z,17.00
2022-11-14T11:31:10.872Z,19.65
2022-11-14T11:34:03.838Z,17.98
2022-11-14T11:37:01.735Z,18.10
2022-11-14T11:39:56.394Z,18.67
2022-11-14T11:43:38.482Z,16.35
2022-11-14T11:46:24.851Z,17.60
2022-11-14T11:49:24.228Z,18.55
2022-11-14T11:52:26.857Z,18.23
2022-11-14T11:55:32.150Z,14.75
2022-11-14T11:58:27.256Z,15.73
2022-11-14T12:01:14.316Z,16.45
2022-11-14T12:04:01.904Z,17.17
2022-11-14T12:07:03.702Z,17.88
2022-11-14T12:13:19.867Z,18.90
2022-11-14T12:16:33.559Z,16.90
2022-11-14T12:19:40.413Z,19.45
2022-11-14T12:22:46.378Z,17.63
2022-11-14T12:25:56.485Z,16.83
2022-11-14T12:29:00.465Z,19.27
2022-11-14T12:31:48.464Z,19.20
2022-11-14T12:34:42.638Z,17.38
2022-11-14T12:37:43.154Z,19.63
2022-11-14T12:40:40.366Z,18.92
2022-11-14T12:43:36.405Z,17.70
2022-11-14T12:46:23.548Z,16.95
2022-11-14T12:49:48.521Z,17.77
2022-11-14T12:52:46.466Z,16.73
2022-11-14T12:55:31.917Z,18.60
2022-11-14T12:58:30.087Z,18.67
2022-11-14T13:01:18.563Z,19.55
2022-11-14T13:04:22.261Z,19.67
2022-11-14T13:07:34.724Z,17.02
2022-11-14T13:10:42.322Z,15.00
2022-11-14T13:13:47.736Z,16.05
2022-11-14T13:16:52.130Z,18.75
2022-11-14T13:20:06.216Z,20.52
2022-11-14T13:22:53.099Z,16.13
2022-11-14T13:25:39.108Z,15.65
2022-11-14T13:28:43.575Z,18.83
2022-11-14T13:31:51.627Z,18.00
2022-11-14T13:34:51.762Z,18.17
2022-11-14T13:37:56.059Z,32.97
2022-11-14T13:41:05.524Z,24.80
2022-11-14T13:44:01.329Z,24.75
2022-11-14T13:46:52.895Z,23.70
2022-11-14T13:49:56.711Z,24.58
2022-11-14T13:52:46.583Z,24.35
2022-11-14T13:55:54.217Z,27.02
2022-11-14T13:59:05.315Z,23.02
2022-11-14T14:02:11.302Z,27.00
2022-11-14T14:05:36.453Z,28.58
2022-11-14T14:08:53.660Z,27.45
2022-11-14T14:12:00.753Z,26.80
2022-11-14T14:15:15.181Z,30.75
2022-11-14T14:18:35.645Z,30.05
2022-11-14T14:21:29.955Z,27.25
2022-11-14T14:24:29.475Z,25.92
2022-11-14T14:27:36.367Z,26.48
2022-11-14T14:30:25.989Z,30.65
2022-11-14T14:33:15.540Z,29.42
2022-11-14T14:36:01.312Z,26.08
2022-11-14T14:38:48.939Z,33.47
2022-11-14T14:41:35.241Z,32.72
2022-11-14T14:44:35.077Z,34.03
2022-11-14T14:47:41.496Z,39.28
2022-11-14T14:50:33.428Z,40.90
2022-11-14T14:53:25.365Z,29.83
2022-11-14T14:56:20.826Z,29.95
2022-11-14T14:59:18.757Z,35.83
2022-11-14T15:02:15.435Z,42.33
2022-11-14T15:05:03.596Z,32.40
2022-11-14T15:07:51.478Z,29.42
2022-11-14T15:10:37.833Z,26.83
2022-11-14T15:13:25.500Z,27.95
2022-11-14T15:16:11.589Z,26.80
2022-11-14T15:19:00.614Z,23.60
2022-11-14T15:22:04.141Z,21.17
2022-11-14T15:25:12.192Z,26.10
2022-11-14T15:28:02.629Z,24.08
2022-11-14T15:31:02.410Z,27.52
2022-11-14T15:34:34.385Z,25.73
2022-11-14T15:37:22.596Z,25.23
2022-11-14T15:40:22.761Z,27.80
2022-11-14T15:43:37.212Z,28.58
2022-11-14T15:46:37.812Z,25.90
2022-11-14T15:49:26.885Z,28.90
2022-11-14T15:52:26.622Z,33.80
2022-11-14T15:55:16.209Z,30.60
2022-11-14T15:58:26.637Z,27.48
2022-11-14T16:01:16.051Z,29.10
2022-11-14T16:04:02.952Z,29.08
2022-11-14T16:06:48.901Z,29.23
2022-11-14T16:09:34.988Z,24.60
2022-11-14T16:12:21.499Z,26.45
2022-11-14T16:15:08.085Z,24.90
2022-11-14T16:17:53.895Z,23.25
2022-11-14T16:20:42.111Z,25.67
2022-11-14T16:23:27.744Z,28.50
2022-11-14T16:26:13.571Z,24.65
2022-11-14T16:28:59.296Z,25.20
2022-11-14T16:31:45.062Z,25.40
2022-11-14T16:34:59.727Z,28.58
2022-11-14T16:37:49.594Z,26.65
2022-11-14T16:40:36.548Z,29.67
2022-11-14T16:43:23.234Z,23.70
2022-11-14T16:46:11.595Z,23.20
2022-11-14T16:48:57.309Z,22.33
2022-11-14T16:51:49.317Z,23.20
2022-11-14T16:54:35.665Z,21.67
2022-11-14T16:57:21.659Z,25.48
2022-11-14T17:00:10.984Z,29.45
2022-11-14T17:02:57.004Z,26.88
2022-11-14T17:05:51.395Z,25.23
2022-11-14T17:08:37.602Z,23.73
2022-11-14T17:11:25.084Z,25.33
2022-11-14T17:14:11.176Z,33.60
2022-11-14T17:17:05.110Z,32.10
2022-11-14T17:20:02.751Z,37.45
2022-11-14T17:22:52.034Z,41.63
2022-11-14T17:25:44.862Z,36.85
2022-11-14T17:28:31.421Z,38.38
2022-11-14T17:31:17.575Z,35.03
2022-11-14T17:34:03.743Z,32.28
2022-11-14T17:36:49.287Z,31.52
2022-11-14T17:39:36.407Z,32.75
2022-11-14T17:42:22.322Z,28.35
2022-11-14T17:45:21.911Z,28.55
2022-11-14T17:48:08.291Z,33.78
2022-11-14T17:50:55.604Z,34.28
2022-11-14T17:53:42.821Z,30.67
2022-11-14T17:56:29.300Z,30.92
2022-11-14T17:59:15.850Z,31.73
2022-11-14T18:02:04.977Z,30.45
2022-11-14T18:04:50.937Z,29.50
2022-11-14T18:07:36.802Z,30.02
2022-11-14T18:10:22.546Z,31.67
2022-11-14T18:13:08.523Z,31.45
2022-11-14T18:15:54.209Z,31.42
2022-11-14T18:18:39.900Z,32.20
2022-11-14T18:21:26.875Z,31.45
2022-11-14T18:24:14.232Z,30.65
2022-11-14T18:26:59.753Z,31.17
2022-11-14T18:29:45.295Z,31.40
2022-11-14T18:32:31.585Z,31.85
2022-11-14T18:35:17.389Z,34.83
2022-11-14T18:38:02.914Z,35.35
2022-11-14T18:40:52.956Z,36.38
2022-11-14T18:44:14.678Z,37.78
2022-11-14T18:47:00.458Z,39.60
2022-11-14T18:50:13.433Z,34.35
2022-11-14T18:52:59.196Z,29.95
2022-11-14T18:56:23.233Z,33.50
2022-11-14T18:59:09.764Z,31.13
2022-11-14T19:01:55.763Z,30.75
2022-11-14T19:04:41.690Z,34.55
2022-11-14T19:07:29.811Z,28.98
2022-11-14T19:10:15.953Z,30.08
2022-11-14T19:13:01.389Z,30.17
2022-11-14T19:15:46.997Z,28.60
2022-11-14T19:18:33.127Z,27.65
2022-11-14T19:21:18.784Z,28.92
2022-11-14T19:24:04.969Z,29.40
2022-11-14T19:26:50.959Z,35.92
2022-11-14T19:29:40.207Z,48.72
2022-11-14T19:32:55.562Z,39.20
2022-11-14T19:35:41.910Z,28.48
2022-11-14T19:38:27.742Z,30.63
2022-11-14T19:41:32.816Z,26.50
2022-11-14T19:44:20.698Z,26.00
2022-11-14T19:47:50.424Z,27.30
2022-11-14T19:50:36.928Z,29.27
2022-11-14T19:53:22.572Z,27.13
2022-11-14T19:56:14.519Z,26.90
2022-11-14T19:59:00.660Z,28.80
2022-11-14T20:01:46.055Z,28.55
2022-11-14T20:04:36.834Z,27.15
2022-11-14T20:07:24.097Z,26.88
2022-11-14T20:10:11.384Z,28.38
2022-11-14T20:12:58.114Z,26.08
2022-11-14T20:15:43.674Z,27.33
2022-11-14T20:18:30.359Z,26.60
2022-11-14T20:21:44.771Z,26.08
2022-11-14T20:24:38.371Z,25.25
2022-11-14T20:27:24.258Z,26.38
2022-11-14T20:30:10.885Z,26.90
2022-11-14T20:32:56.466Z,27.15
2022-11-14T20:35:43.209Z,27.98
2022-11-14T20:38:33.352Z,29.65
2022-11-14T20:41:20.401Z,27.60
2022-11-14T20:44:05.851Z,27.48
2022-11-14T20:46:51.805Z,27.88
2022-11-14T20:49:37.603Z,25.55
2022-11-14T20:52:23.662Z,27.63
2022-11-14T20:55:11.937Z,27.55
2022-11-14T20:57:58.271Z,26.50
2022-11-14T21:00:43.853Z,27.27
2022-11-14T21:03:30.520Z,24.65
2022-11-14T21:06:17.079Z,25.25
2022-11-14T21:09:03.227Z,25.48
2022-11-14T21:11:50.184Z,25.63
2022-11-14T21:14:35.336Z,24.60
2022-11-14T21:17:21.098Z,24.95
2022-11-14T21:20:09.006Z,26.17
2022-11-14T21:22:56.490Z,25.52
2022-11-14T21:25:41.977Z,26.85
2022-11-14T21:28:36.792Z,25.65
2022-11-14T21:31:27.341Z,26.10
2022-11-14T21:34:15.722Z,28.07
2022-11-14T21:37:02.173Z,27.13
2022-11-14T21:39:49.292Z,26.42
2022-11-14T21:42:34.724Z,28.02
2022-11-14T21:45:20.589Z,28.00
2022-11-14T21:48:06.613Z,26.92
2022-11-14T21:50:52.765Z,26.90
2022-11-14T21:53:39.264Z,27.17
2022-11-14T21:56:30.210Z,25.95
2022-11-14T21:59:19.043Z,26.20
2022-11-14T22:02:23.589Z,27.83
2022-11-14T22:05:09.649Z,24.95
2022-11-14T22:07:55.114Z,25.95
2022-11-14T22:10:41.805Z,22.70
2022-11-14T22:13:30.691Z,23.50
2022-11-14T22:16:22.500Z,24.05
2022-11-14T22:19:08.413Z,22.75
2022-11-14T22:21:54.855Z,22.38
2022-11-14T22:24:40.954Z,21.85
2022-11-14T22:27:26.814Z,21.02
2022-11-14T22:30:14.326Z,20.58
2022-11-14T22:33:00.763Z,21.20
2022-11-14T22:35:46.392Z,19.25
2022-11-14T22:38:34.268Z,20.17
2022-11-14T22:41:25.239Z,20.17
2022-11-14T22:44:16.309Z,20.27
2022-11-14T22:47:01.830Z,20.73
2022-11-14T22:49:47.190Z,21.15
2022-11-14T22:52:33.422Z,19.67
2022-11-14T22:55:19.075Z,20.00
2022-11-14T22:58:05.188Z,19.48
2022-11-14T23:00:52.368Z,20.05
2022-11-14T23:03:39.316Z,19.65
2022-11-14T23:06:26.205Z,18.88
2022-11-14T23:09:12.093Z,18.80
2022-11-14T23:11:57.972Z,19.15
2022-11-14T23:14:43.568Z,18.45
2022-11-14T23:17:29.293Z,19.20
2022-11-14T23:20:16.789Z,18.42
2022-11-14T23:23:03.723Z,18.55
2022-11-14T23:25:49.524Z,19.35
2022-11-14T23:28:35.888Z,19.65
2022-11-14T23:31:25.758Z,17.63
2022-11-14T23:34:12.875Z,17.55
2022-11-14T23:37:00.649Z,18.15
2022-11-14T23:39:46.203Z,18.27
2022-11-14T23:42:31.996Z,18.83
2022-11-14T23:45:17.927Z,17.75
2022-11-14T23:48:04.164Z,18.30
2022-11-14T23:50:51.707Z,17.55
2022-11-14T23:53:38.148Z,17.55
2022-11-14T23:56:24.270Z,17.42
2022-11-14T23:59:10.004Z,17.67
